Time;durP1;ratioP1;P1;durP2;ratioP2;P2;SDS_P1;SDS_P2;PMS_P1;PMS_P2;Temp;Humidity;BMP_temperature;BMP_pressure;BME280_temperature;BME280_humidity;BME280_pressure;Samples;Min_cycle;Max_cycle;Signal;HPM_P1;HPM_P2
2022/05/20 00:00:17;;;;;;;4.05;2.35;;;;;;;9.58;60.59;98628.70;1671521;85;21398;-80
2022/05/20 00:02:48;;;;;;;3.27;2.00;;;;;;;9.62;60.47;98634.38;1693504;83;21059;-79
2022/05/20 00:05:15;;;;;;;6.65;2.83;;;;;;;9.64;60.23;98636.58;1676097;84;21060;-81
2022/05/20 00:07:42;;;;;;;3.20;2.12;;;;;;;9.61;60.63;98629.99;1679028;84;20996;-80
2022/05/20 00:10:11;;;;;;;3.00;2.10;;;;;;;9.60;60.52;98632.22;1680016;83;21046;-81
2022/05/20 00:12:38;;;;;;;5.62;2.45;;;;;;;9.59;60.77;98631.80;1693446;83;21020;-81
2022/05/20 00:15:07;;;;;;;4.05;2.22;;;;;;;9.59;60.10;98630.48;1688679;84;20996;-80
2022/05/20 00:17:33;;;;;;;3.98;2.00;;;;;;;9.56;60.93;98632.73;1695075;84;21055;-80
2022/05/20 00:20:01;;;;;;;3.15;2.05;;;;;;;9.53;60.96;98629.23;1701195;83;21468;-80
2022/05/20 00:22:27;;;;;;;2.87;2.12;;;;;;;9.47;61.76;98636.36;1719765;82;21019;-80
2022/05/20 00:27:39;;;;;;;5.25;1.87;;;;;;;9.44;60.52;98636.86;1674210;85;20993;-89
2022/05/20 00:30:06;;;;;;;3.87;2.33;;;;;;;9.45;60.81;98639.92;1681373;85;21075;-88
2022/05/20 00:32:33;;;;;;;4.62;2.05;;;;;;;9.42;60.67;98637.34;1685359;85;21024;-87
2022/05/20 00:34:59;;;;;;;3.25;2.40;;;;;;;9.41;60.71;98634.25;1672319;83;21093;-88
2022/05/20 00:37:25;;;;;;;4.47;2.20;;;;;;;9.43;60.41;98637.77;1685636;85;21073;-88
2022/05/20 00:39:52;;;;;;;5.28;1.90;;;;;;;9.40;60.60;98636.04;1681509;85;21001;-89
2022/05/20 00:42:19;;;;;;;4.78;2.00;;;;;;;9.38;60.65;98633.41;1679193;85;21032;-89
2022/05/20 00:44:46;;;;;;;5.65;2.35;;;;;;;9.33;61.83;98634.36;1671468;85;21541;-89
2022/05/20 00:47:14;;;;;;;3.37;1.92;;;;;;;9.27;61.46;98641.06;1692317;85;21474;-89
2022/05/20 00:49:43;;;;;;;6.55;2.00;;;;;;;9.20;61.80;98637.20;1685225;85;21528;-89
2022/05/20 00:52:13;;;;;;;3.58;2.05;;;;;;;9.13;61.94;98638.16;1691719;85;21084;-89
2022/05/20 00:54:46;;;;;;;7.33;2.08;;;;;;;9.10;61.64;98638.22;1692383;85;21001;-87
2022/05/20 00:57:21;;;;;;;3.37;2.00;;;;;;;9.00;62.90;98647.17;1692132;85;21044;-89
2022/05/20 00:59:54;;;;;;;3.25;1.90;;;;;;;8.99;61.94;98647.59;1691405;85;21080;-89
2022/05/20 01:02:23;;;;;;;4.35;1.98;;;;;;;8.97;62.23;98647.61;1692397;83;21113;-89
2022/05/20 01:04:52;;;;;;;5.35;2.00;;;;;;;8.93;62.70;98647.69;1690607;85;21103;-89
2022/05/20 01:07:18;;;;;;;3.25;1.85;;;;;;;8.91;62.32;98638.88;1690801;85;21040;-91
2022/05/20 01:09:46;;;;;;;3.45;1.80;;;;;;;8.90;62.22;98647.28;1691486;85;21099;-89
2022/05/20 01:12:12;;;;;;;5.10;1.75;;;;;;;8.87;62.90;98643.34;1692213;85;21100;-90
2022/05/20 01:14:39;;;;;;;2.50;1.60;;;;;;;8.83;63.11;98650.44;1692399;85;21064;-89
2022/05/20 01:17:07;;;;;;;5.70;1.70;;;;;;;8.80;63.22;98654.89;1692393;85;21541;-89
2022/05/20 01:19:43;;;;;;;6.10;1.92;;;;;;;8.78;63.64;98662.84;1692038;85;21057;-90
2022/05/20 01:22:12;;;;;;;2.62;1.72;;;;;;;8.72;63.60;98658.92;1686385;85;21040;-90
2022/05/20 01:24:39;;;;;;;4.17;2.02;;;;;;;8.71;63.46;98658.06;1686946;85;21056;-88
2022/05/20 01:27:05;;;;;;;3.72;1.75;;;;;;;8.69;63.41;98660.29;1686930;85;21043;-87
2022/05/20 01:29:32;;;;;;;3.77;2.17;;;;;;;8.64;63.90;98663.43;1686779;85;21054;-86
2022/05/20 01:31:58;;;;;;;2.40;1.60;;;;;;;8.61;63.66;98657.73;1687018;85;20955;-86
2022/05/20 01:34:25;;;;;;;3.55;1.67;;;;;;;8.58;64.31;98659.08;1686087;85;21482;-85
2022/05/20 01:36:51;;;;;;;4.37;1.95;;;;;;;8.60;63.24;98659.07;1687003;85;21029;-86
2022/05/20 01:39:18;;;;;;;3.42;1.65;;;;;;;8.55;63.64;98658.67;1686896;85;20985;-86
2022/05/20 01:41:53;;;;;;;3.67;1.75;;;;;;;8.52;63.55;98661.77;1721654;83;20984;-86
2022/05/20 01:44:26;;;;;;;3.08;1.55;;;;;;;8.50;63.12;98659.56;1721384;83;21094;-86
2022/05/20 01:46:59;;;;;;;4.92;1.77;;;;;;;8.45;63.04;98661.84;1720609;83;21035;-86
2022/05/20 01:49:41;;;;;;;8.10;1.80;;;;;;;8.44;63.39;98653.92;1720500;83;21042;-86
2022/05/20 01:52:35;;;;;;;2.10;1.60;;;;;;;8.43;63.46;98656.99;1720139;83;21040;-87
2022/05/20 01:55:26;;;;;;;4.50;1.82;;;;;;;8.45;63.46;98651.70;1721615;83;21028;-87
2022/05/20 01:58:12;;;;;;;6.00;1.67;;;;;;;8.43;63.78;98647.75;1721606;83;20981;-87
2022/05/20 02:00:41;;;;;;;4.55;1.95;;;;;;;8.39;64.18;98655.27;1721376;82;21439;-87
2022/05/20 02:03:27;;;;;;;5.97;2.00;;;;;;;8.37;63.78;98650.89;1687810;83;21052;-86
2022/05/20 02:06:21;;;;;;;3.05;1.67;;;;;;;8.36;63.75;98650.47;1721587;83;21497;-86
2022/05/20 02:08:54;;;;;;;3.15;1.72;;;;;;;8.32;64.00;98653.59;1689887;84;21061;-88
2022/05/20 02:11:26;;;;;;;4.50;1.70;;;;;;;8.28;64.39;98654.08;1698713;84;21134;-86
2022/05/20 02:14:02;;;;;;;4.20;1.65;;;;;;;8.21;64.82;98649.73;1708469;83;21071;-87
2022/05/20 02:16:32;;;;;;;6.72;2.17;;;;;;;8.16;64.53;98658.14;1719910;83;21122;-86
2022/05/20 02:19:02;;;;;;;3.33;1.85;;;;;;;8.11;64.73;98654.23;1720774;83;20984;-86
2022/05/20 02:21:31;;;;;;;4.50;2.10;;;;;;;8.05;64.86;98663.50;1732435;82;21559;-87
2022/05/20 02:24:01;;;;;;;4.08;1.85;;;;;;;8.03;64.72;98649.45;1744849;82;20991;-86
2022/05/20 02:26:32;;;;;;;3.52;1.70;;;;;;;8.01;64.83;98651.25;1745103;82;21056;-86
2022/05/20 02:29:05;;;;;;;4.03;1.87;;;;;;;7.98;64.97;98657.86;1744554;82;21083;-85
2022/05/20 02:31:35;;;;;;;4.58;1.72;;;;;;;7.95;65.77;98656.55;1744347;82;21020;-85
2022/05/20 02:34:01;;;;;;;4.60;1.70;;;;;;;7.91;65.83;98656.59;1744884;82;21489;-86
2022/05/20 02:36:34;;;;;;;4.33;1.72;;;;;;;7.89;66.12;98655.72;1724118;82;21050;-86
2022/05/20 02:38:59;;;;;;;3.17;1.92;;;;;;;7.88;65.81;98653.97;1730323;82;20977;-86
2022/05/20 02:41:26;;;;;;;2.60;1.40;;;;;;;7.89;65.39;98654.86;1692307;85;21091;-87
2022/05/20 02:43:52;;;;;;;3.20;1.52;;;;;;;7.91;65.06;98648.68;1692013;85;21116;-86
2022/05/20 02:46:18;;;;;;;3.55;1.90;;;;;;;7.91;65.76;98645.16;1690868;85;21043;-86
2022/05/20 02:48:45;;;;;;;2.67;1.70;;;;;;;7.94;64.79;98651.73;1692288;84;21551;-88
2022/05/20 02:51:11;;;;;;;3.10;1.67;;;;;;;7.96;65.05;98643.78;1691946;85;21073;-88
2022/05/20 02:53:37;;;;;;;3.83;1.60;;;;;;;7.99;65.12;98657.85;1692114;85;21429;-87
2022/05/20 02:56:04;;;;;;;3.47;1.60;;;;;;;7.98;65.06;98659.18;1691839;85;21072;-89
2022/05/20 03:04:10;;;;;;;5.03;1.60;;;;;;;7.96;64.75;98659.62;1693507;84;20137;-88
2022/05/20 03:06:46;;;;;;;3.62;2.00;;;;;;;7.91;64.74;98660.98;1679544;85;20994;-88
2022/05/20 03:09:14;;;;;;;2.55;1.60;;;;;;;7.92;65.41;98663.62;1679549;85;21017;-88
2022/05/20 03:11:42;;;;;;;3.90;1.80;;;;;;;7.89;65.46;98659.67;1679254;84;21028;-87
2022/05/20 03:14:11;;;;;;;3.62;1.70;;;;;;;7.92;64.97;98654.81;1679536;85;21080;-88
2022/05/20 03:16:40;;;;;;;2.30;1.50;;;;;;;7.93;64.96;98661.84;1679228;84;21474;-88
2022/05/20 03:19:07;;;;;;;3.47;1.90;;;;;;;7.93;65.30;98665.80;1678853;85;21080;-87
2022/05/20 03:21:35;;;;;;;3.52;1.77;;;;;;;7.95;64.96;98669.31;1679357;85;21013;-88
2022/05/20 03:24:04;;;;;;;6.30;2.10;;;;;;;7.95;65.14;98666.68;1679650;85;20989;-87
2022/05/20 03:26:30;;;;;;;2.58;1.82;;;;;;;7.96;65.25;98665.78;1679579;85;21104;-88
2022/05/20 03:29:02;;;;;;;3.75;1.30;;;;;;;7.98;65.17;98659.18;1679501;85;21435;-88
2022/05/20 03:31:27;;;;;;;2.72;1.80;;;;;;;7.97;65.17;98664.89;1679712;85;21034;-87
2022/05/20 03:33:54;;;;;;;2.47;1.70;;;;;;;7.97;64.97;98662.25;1679583;84;21507;-87
2022/05/20 03:36:21;;;;;;;3.95;1.72;;;;;;;7.96;64.89;98666.22;1679772;85;21121;-87
2022/05/20 03:38:48;;;;;;;5.12;2.00;;;;;;;7.96;65.41;98667.53;1679679;85;21022;-86
2022/05/20 03:41:14;;;;;;;5.15;1.75;;;;;;;7.99;64.71;98659.17;1691449;85;20983;-87
2022/05/20 03:43:40;;;;;;;2.12;1.60;;;;;;;8.00;64.83;98660.91;1691359;84;21022;-86
2022/05/20 03:46:08;;;;;;;4.60;1.92;;;;;;;8.05;64.54;98655.58;1668284;84;21425;-87
2022/05/20 03:48:34;;;;;;;6.45;1.72;;;;;;;8.03;64.98;98659.58;1692182;85;21449;-87
2022/05/20 03:51:12;;;;;;;4.10;1.82;;;;;;;8.09;64.57;98660.41;1700120;84;21050;-86
2022/05/20 03:53:39;;;;;;;2.87;1.65;;;;;;;8.14;64.61;98664.75;1724522;83;21505;-87
2022/05/20 03:56:06;;;;;;;7.58;2.00;;;;;;;8.17;64.59;98661.20;1694825;84;21050;-87
2022/05/20 03:58:32;;;;;;;5.60;1.90;;;;;;;8.22;64.09;98665.14;1706554;84;21023;-87
2022/05/20 04:03:46;;;;;;;6.60;1.85;;;;;;;8.31;63.77;98655.34;1699042;83;21088;-88
2022/05/20 04:06:13;;;;;;;3.08;1.85;;;;;;;8.34;63.88;98654.44;1693464;84;21013;-88
2022/05/20 04:08:40;;;;;;;3.55;1.65;;;;;;;8.36;64.14;98659.72;1692656;85;21071;-88
2022/05/20 04:11:11;;;;;;;3.47;1.50;;;;;;;8.41;63.81;98660.54;1692325;85;21076;-88
2022/05/20 04:13:35;;;;;;;2.67;1.60;;;;;;;8.46;64.09;98658.73;1692001;85;21088;-88
2022/05/20 04:16:01;;;;;;;6.05;1.85;;;;;;;8.47;64.07;98660.47;1704223;84;21062;-88
2022/05/20 04:18:28;;;;;;;3.08;1.92;;;;;;;8.51;63.82;98662.20;1709300;83;21015;-88
2022/05/20 04:20:55;;;;;;;5.10;2.05;;;;;;;8.52;64.14;98663.97;1707940;83;21009;-89
2022/05/20 04:23:22;;;;;;;4.28;2.00;;;;;;;8.57;63.74;98662.19;1687065;85;21017;-88
2022/05/20 04:25:48;;;;;;;4.00;2.10;;;;;;;8.56;63.98;98664.38;1686855;85;21128;-89
2022/05/20 04:28:15;;;;;;;5.97;2.20;;;;;;;8.58;63.65;98655.11;1686883;85;21067;-89
2022/05/20 04:30:42;;;;;;;4.25;2.00;;;;;;;8.60;63.80;98655.99;1686855;84;21056;-89
2022/05/20 04:33:08;;;;;;;3.90;1.92;;;;;;;8.63;63.64;98660.37;1686928;85;21383;-88
2022/05/20 04:35:35;;;;;;;3.35;1.92;;;;;;;8.61;64.16;98657.73;1686833;85;21080;-88
2022/05/20 04:38:01;;;;;;;5.60;1.98;;;;;;;8.65;63.61;98663.86;1687710;85;21052;-87
2022/05/20 04:40:27;;;;;;;6.00;2.90;;;;;;;8.70;63.68;98661.60;1702003;84;20980;-88
2022/05/20 04:48:14;;;;;;;5.60;1.80;;;;;;;8.93;63.41;98652.50;1683775;84;21051;-88
2022/05/20 04:50:40;;;;;;;4.35;2.20;;;;;;;9.02;63.04;98652.86;1673577;86;21500;-89
2022/05/20 04:53:06;;;;;;;9.83;2.30;;;;;;;9.10;62.94;98639.54;1698450;83;21003;-89
2022/05/20 04:55:34;;;;;;;4.33;2.12;;;;;;;9.20;62.85;98645.13;1701417;84;21811;-89
2022/05/20 04:58:02;;;;;;;4.95;2.30;;;;;;;9.31;62.72;98646.31;1701667;84;21027;-89
2022/05/20 05:00:30;;;;;;;6.33;2.50;;;;;;;9.42;62.77;98644.81;1702125;84;21027;-86
2022/05/20 05:02:57;;;;;;;3.25;1.85;;;;;;;9.54;62.34;98646.41;1707082;83;21458;-87
2022/05/20 05:05:27;;;;;;;5.72;1.87;;;;;;;9.64;62.27;98653.31;1700154;84;21051;-88
2022/05/20 05:07:55;;;;;;;3.80;2.02;;;;;;;9.76;62.09;98648.28;1700701;84;21055;-88
2022/05/20 05:10:25;;;;;;;4.90;2.33;;;;;;;9.89;61.86;98649.42;1701530;84;21063;-88
2022/05/20 05:12:51;;;;;;;6.42;3.27;;;;;;;10.02;61.79;98647.44;1701837;83;21437;-88
2022/05/20 05:15:19;;;;;;;4.08;2.02;;;;;;;10.14;62.00;98649.01;1701566;84;21039;-88
2022/05/20 05:20:32;;;;;;;4.42;1.85;;;;;;;10.37;61.65;98647.27;1701278;84;21034;-88
2022/05/20 05:23:00;;;;;;;4.85;2.25;;;;;;;10.49;61.47;98640.90;1734178;82;21508;-88
2022/05/20 05:25:29;;;;;;;6.15;2.30;;;;;;;10.59;61.48;98648.20;1744265;82;21088;-88
2022/05/20 05:27:55;;;;;;;4.58;2.08;;;;;;;10.71;61.25;98647.09;1744493;81;20988;-87
2022/05/20 05:30:22;;;;;;;5.05;2.20;;;;;;;10.85;61.52;98640.66;1744277;82;20957;-88
2022/05/20 05:32:50;;;;;;;3.65;1.92;;;;;;;10.99;61.21;98636.38;1732310;82;20969;-88
2022/05/20 05:35:19;;;;;;;4.37;2.33;;;;;;;11.09;60.91;98638.82;1692064;85;21049;-90
2022/05/20 05:37:46;;;;;;;4.47;2.05;;;;;;;11.21;60.79;98644.31;1661472;86;21011;-87
2022/05/20 05:40:15;;;;;;;5.78;2.30;;;;;;;11.35;60.55;98637.37;1709060;82;20986;-86
2022/05/20 05:42:42;;;;;;;4.72;2.20;;;;;;;11.50;60.41;98635.27;1696765;84;20991;-87
2022/05/20 05:45:11;;;;;;;6.55;2.30;;;;;;;11.65;60.13;98636.71;1679398;85;21021;-87
2022/05/20 05:47:37;;;;;;;5.42;2.30;;;;;;;11.74;60.19;98628.97;1679462;84;20998;-87
2022/05/20 05:50:05;;;;;;;7.97;2.58;;;;;;;11.87;60.14;98630.87;1679429;85;21061;-87
2022/05/20 05:52:31;;;;;;;13.18;7.45;;;;;;;11.98;60.06;98627.52;1679307;85;21014;-87
2022/05/20 05:54:57;;;;;;;24.65;13.10;;;;;;;12.10;59.95;98625.03;1679460;85;21030;-87
2022/05/20 05:57:24;;;;;;;10.60;3.42;;;;;;;12.19;59.81;98625.24;1679559;85;21069;-88
2022/05/20 05:59:51;;;;;;;8.25;3.00;;;;;;;12.28;59.51;98622.79;1690002;84;21081;-89
2022/05/20 06:02:17;;;;;;;7.03;2.77;;;;;;;12.38;59.17;98619.45;1692259;83;21092;-89
2022/05/20 06:04:44;;;;;;;5.47;2.33;;;;;;;12.50;59.05;98619.09;1720946;83;21016;-88
2022/05/20 06:07:11;;;;;;;5.97;2.75;;;;;;;12.64;58.97;98616.52;1720740;83;21461;-89
2022/05/20 06:09:37;;;;;;;8.43;2.30;;;;;;;12.76;58.84;98611.31;1721126;83;20973;-89
2022/05/20 06:12:05;;;;;;;5.72;2.17;;;;;;;12.87;58.12;98615.00;1704307;82;21468;-82
2022/05/20 06:14:31;;;;;;;6.72;2.20;;;;;;;12.99;57.86;98611.97;1724123;83;21019;-85
2022/05/20 06:16:57;;;;;;;5.35;1.90;;;;;;;13.11;57.69;98617.39;1713924;82;21577;-81
2022/05/20 06:19:24;;;;;;;5.75;1.60;;;;;;;13.25;57.62;98612.97;1676375;83;21124;-81
2022/05/20 06:21:50;;;;;;;3.30;1.98;;;;;;;13.36;57.34;98613.13;1729834;81;21051;-81
2022/05/20 06:24:16;;;;;;;5.60;1.90;;;;;;;13.50;57.28;98612.27;1723304;82;21496;-81
2022/05/20 06:26:43;;;;;;;5.65;2.22;;;;;;;13.63;57.04;98616.73;1707113;83;21072;-82
2022/05/20 06:29:10;;;;;;;5.42;2.00;;;;;;;13.76;57.21;98613.66;1664483;86;21064;-82
2022/05/20 06:31:36;;;;;;;5.17;1.85;;;;;;;13.90;57.15;98606.08;1664545;86;21076;-82
2022/05/20 06:34:02;;;;;;;3.75;1.80;;;;;;;14.04;56.95;98604.75;1666041;85;21023;-82
2022/05/20 06:41:58;;;;;;;5.12;1.55;;;;;;;14.46;55.19;98601.53;1692464;85;21028;-80
2022/05/20 06:44:25;;;;;;;3.72;1.45;;;;;;;14.61;54.63;98597.42;1692197;85;21020;-80
2022/05/20 06:46:52;;;;;;;2.55;1.32;;;;;;;14.75;54.26;98596.05;1692207;85;21023;-80
2022/05/20 06:49:18;;;;;;;4.58;1.65;;;;;;;14.88;53.84;98592.48;1692151;85;21518;-81
2022/05/20 06:51:49;;;;;;;6.28;1.65;;;;;;;15.02;53.22;98593.28;1691791;85;21076;-80
2022/05/20 06:54:15;;;;;;;4.45;1.70;;;;;;;15.12;52.95;98586.66;1692102;85;21144;-80
2022/05/20 06:56:44;;;;;;;14.18;5.97;;;;;;;15.22;52.60;98590.31;1673360;85;21523;-82
2022/05/20 06:59:09;;;;;;;8.03;4.15;;;;;;;15.34;52.02;98590.30;1680707;85;21122;-82
2022/05/20 07:01:37;;;;;;;5.45;2.05;;;;;;;15.44;49.88;98584.98;1679107;83;21154;-81
2022/05/20 07:04:04;;;;;;;5.20;1.80;;;;;;;15.55;50.34;98581.89;1681405;83;21441;-82
2022/05/20 07:06:32;;;;;;;5.28;2.00;;;;;;;15.68;50.00;98587.15;1681918;83;21035;-82
2022/05/20 07:08:59;;;;;;;5.47;1.90;;;;;;;15.80;49.95;98589.78;1689316;84;20980;-82
2022/05/20 07:11:25;;;;;;;7.72;2.22;;;;;;;15.93;48.01;98579.90;1636670;85;21034;-82
2022/05/20 07:13:55;;;;;;;3.98;2.20;;;;;;;16.06;48.93;98577.60;1684737;84;21525;-83
2022/05/20 07:16:26;;;;;;;6.17;1.87;;;;;;;16.17;48.73;98588.73;1641780;85;21036;-82
2022/05/20 07:18:53;;;;;;;7.25;2.20;;;;;;;16.28;48.33;98590.06;1686810;83;21004;-80
2022/05/20 07:21:19;;;;;;;2.47;1.52;;;;;;;16.40;48.07;98594.86;1688451;83;21115;-81
2022/05/20 07:23:45;;;;;;;3.22;2.12;;;;;;;16.52;48.13;98604.64;1673626;83;21195;-82
2022/05/20 07:26:13;;;;;;;5.28;2.27;;;;;;;16.63;48.25;98590.30;1676639;83;21107;-82
2022/05/20 07:28:39;;;;;;;8.10;2.33;;;;;;;16.70;48.37;98579.70;1670823;83;21135;-82
2022/05/20 07:31:09;;;;;;;5.60;2.22;;;;;;;16.81;48.22;98584.58;1659447;86;21060;-88
2022/05/20 07:33:37;;;;;;;6.70;2.35;;;;;;;16.92;48.27;98580.08;1680852;83;21071;-89
2022/05/20 07:36:04;;;;;;;7.92;2.00;;;;;;;17.02;47.91;98579.17;1685629;83;21088;-89
2022/05/20 07:38:30;;;;;;;7.28;2.45;;;;;;;17.11;47.84;98580.11;1687447;84;21481;-87
2022/05/20 07:40:57;;;;;;;8.50;2.80;;;;;;;17.19;47.57;98578.41;1676987;85;21025;-89
2022/05/20 07:43:24;;;;;;;9.23;3.22;;;;;;;17.25;48.00;98578.14;1676003;83;21511;-89
2022/05/20 07:45:52;;;;;;;5.50;2.98;;;;;;;17.31;48.18;98577.45;1700310;84;21032;-90
2022/05/20 07:48:19;;;;;;;10.18;3.00;;;;;;;17.36;48.15;98574.92;1692736;85;20992;-89
2022/05/20 07:50:48;;;;;;;8.70;3.00;;;;;;;17.43;48.08;98574.65;1691970;85;21008;-88
2022/05/20 07:53:20;;;;;;;8.33;2.75;;;;;;;17.49;47.90;98572.55;1694005;83;21488;-91
2022/05/20 07:55:56;;;;;;;9.70;3.05;;;;;;;17.55;46.39;98567.33;1689306;83;21418;-86
2022/05/20 07:58:26;;;;;;;8.73;2.35;;;;;;;17.63;46.95;98577.22;1682154;85;20984;-90
2022/05/20 08:00:54;;;;;;;8.13;3.05;;;;;;;17.73;46.97;98576.27;1691857;84;21032;-89
2022/05/20 08:06:06;;;;;;;8.45;2.50;;;;;;;17.82;46.00;98578.98;1692068;85;21521;-84
2022/05/20 08:08:32;;;;;;;4.58;2.52;;;;;;;17.88;45.63;98582.69;1692132;85;21129;-85
2022/05/20 08:10:59;;;;;;;6.67;2.80;;;;;;;17.94;46.36;98576.16;1691987;84;21447;-86
2022/05/20 08:13:26;;;;;;;6.83;2.47;;;;;;;18.01;46.34;98566.84;1690804;84;21443;-80
2022/05/20 08:15:52;;;;;;;6.00;2.77;;;;;;;18.11;46.09;98563.27;1684954;84;21454;-82
2022/05/20 08:18:18;;;;;;;11.22;2.98;;;;;;;18.20;45.84;98564.10;1681169;83;21013;-78
2022/05/20 08:20:45;;;;;;;6.78;2.50;;;;;;;18.30;45.97;98555.58;1690009;85;22147;-78
2022/05/20 08:23:11;;;;;;;4.90;2.42;;;;;;;18.43;45.89;98553.98;1688335;85;21036;-78
2022/05/20 08:25:37;;;;;;;8.65;3.02;;;;;;;18.58;45.86;98555.47;1685684;85;21474;-78
2022/05/20 08:28:05;;;;;;;9.60;2.72;;;;;;;18.69;45.69;98549.53;1685861;85;21076;-78
2022/05/20 08:30:32;;;;;;;6.80;2.22;;;;;;;18.80;45.04;98545.77;1685991;85;21478;-78
2022/05/20 08:32:58;;;;;;;7.37;2.12;;;;;;;18.89;45.00;98541.70;1686149;84;21034;-77
2022/05/20 08:35:29;;;;;;;7.72;2.05;;;;;;;19.03;44.96;98539.62;1685844;85;21489;-77
2022/05/20 08:37:54;;;;;;;4.12;2.10;;;;;;;19.13;44.73;98537.30;1686046;85;21049;-77
2022/05/20 08:40:23;;;;;;;4.17;2.33;;;;;;;19.16;44.31;98537.14;1686824;85;21036;-78
2022/05/20 08:42:53;;;;;;;5.12;2.25;;;;;;;19.21;43.53;98536.86;1686723;85;21394;-78
2022/05/20 08:45:22;;;;;;;5.30;1.98;;;;;;;19.28;42.67;98528.86;1686737;85;21030;-78
2022/05/20 08:47:51;;;;;;;4.03;1.90;;;;;;;19.42;43.37;98530.75;1686847;84;20978;-78
2022/05/20 08:50:27;;;;;;;6.97;1.98;;;;;;;19.51;41.69;98533.38;1686632;85;21021;-77
2022/05/20 08:52:56;;;;;;;5.80;2.00;;;;;;;19.57;42.55;98533.50;1686900;85;21024;-78
2022/05/20 08:55:23;;;;;;;2.67;1.90;;;;;;;19.62;41.55;98532.75;1686651;85;21458;-79
2022/05/20 08:57:53;;;;;;;5.03;1.98;;;;;;;19.70;41.93;98526.46;1686816;85;20997;-79
2022/05/20 09:00:20;;;;;;;3.22;1.95;;;;;;;19.75;41.22;98523.02;1686805;85;21017;-78
2022/05/20 09:02:46;;;;;;;5.28;2.55;;;;;;;19.87;40.98;98523.24;1686664;85;21457;-78
2022/05/20 09:05:33;;;;;;;9.33;6.12;;;;;;;19.94;39.76;98523.75;1686948;85;21028;-77
2022/05/20 09:08:09;;;;;;;3.75;2.08;;;;;;;20.00;39.97;98520.71;1703055;83;21020;-78
2022/05/20 09:10:48;;;;;;;3.25;1.62;;;;;;;20.04;38.30;98522.27;1712581;83;21075;-78
2022/05/20 09:16:24;;;;;;;3.08;1.50;;;;;;;20.29;36.66;98508.19;1701686;84;21000;-77
2022/05/20 09:19:06;;;;;;;3.77;1.40;;;;;;;20.43;37.18;98505.13;1702056;83;21055;-77
2022/05/20 09:21:38;;;;;;;3.67;2.33;;;;;;;20.58;35.75;98504.64;1716995;83;21029;-77
2022/05/20 09:24:17;;;;;;;5.58;1.77;;;;;;;20.67;34.46;98494.64;1728197;81;21032;-77
2022/05/20 09:26:49;;;;;;;4.08;1.60;;;;;;;20.68;32.08;98488.28;1699204;84;21009;-77
2022/05/20 09:29:22;;;;;;;2.25;1.60;;;;;;;20.75;34.78;98487.91;1693942;84;21075;-77
2022/05/20 09:31:53;;;;;;;5.20;1.98;;;;;;;20.83;34.09;98482.41;1678304;85;21069;-77
2022/05/20 09:34:29;;;;;;;3.80;1.90;;;;;;;20.91;33.98;98486.45;1679622;85;21435;-78
2022/05/20 09:37:17;;;;;;;6.75;1.62;;;;;;;20.95;34.06;98485.30;1679359;85;21057;-77
2022/05/20 09:39:47;;;;;;;7.28;1.60;;;;;;;21.07;33.33;98482.30;1635854;88;21107;-78
2022/05/20 09:42:27;;;;;;;2.40;1.42;;;;;;;21.20;31.54;98479.19;1664074;86;21048;-78
2022/05/20 09:44:56;;;;;;;2.87;1.47;;;;;;;21.28;32.54;98471.94;1635818;87;21020;-78
2022/05/20 09:47:29;;;;;;;3.37;1.60;;;;;;;21.38;33.04;98457.84;1666393;84;21039;-78
2022/05/20 09:50:02;;;;;;;6.55;2.02;;;;;;;21.49;33.27;98450.77;1703898;84;21085;-78
2022/05/20 09:52:47;;;;;;;5.55;1.70;;;;;;;21.62;33.63;98447.22;1703425;84;21071;-78
2022/05/20 09:55:17;;;;;;;3.33;1.72;;;;;;;21.76;32.42;98444.98;1703164;84;21504;-78
2022/05/20 09:57:46;;;;;;;5.90;1.67;;;;;;;21.96;33.55;98439.53;1658096;85;20998;-78
2022/05/20 10:00:25;;;;;;;3.55;1.35;;;;;;;22.10;32.18;98435.89;1679434;84;21069;-81
2022/05/20 10:03:12;;;;;;;6.12;1.80;;;;;;;22.31;31.97;98435.81;1674754;85;21104;-81
2022/05/20 10:06:09;;;;;;;3.72;1.70;;;;;;;22.52;32.86;98430.23;1679257;85;21493;-81
2022/05/20 10:08:48;;;;;;;3.72;1.42;;;;;;;22.64;30.80;98435.27;1678580;85;21491;-81
2022/05/20 10:11:18;;;;;;;4.08;1.40;;;;;;;22.75;30.45;98430.41;1679388;85;21061;-82
2022/05/20 10:13:59;;;;;;;6.22;1.40;;;;;;;22.83;29.78;98431.20;1679365;85;21089;-81
2022/05/20 10:16:45;;;;;;;4.50;1.80;;;;;;;22.85;29.75;98421.16;1673519;85;21595;-81
2022/05/20 10:19:18;;;;;;;5.58;1.70;;;;;;;23.14;29.32;98424.02;1708903;84;21513;-81
2022/05/20 10:22:12;;;;;;;4.40;1.60;;;;;;;23.14;29.32;98424.02;1698706;84;21075;-81
2022/05/20 10:24:51;;;;;;;2.92;1.42;;;;;;;23.20;30.61;98414.96;1697521;83;21024;-82
2022/05/20 10:27:49;;;;;;;2.17;1.62;;;;;;;23.30;28.82;98404.80;1699585;84;21520;-81
2022/05/20 10:33:09;;;;;;;6.35;2.08;;;;;;;23.47;28.83;98404.91;1695620;85;21024;-81
2022/05/20 10:35:55;;;;;;;4.78;1.55;;;;;;;23.62;29.26;98402.00;1658316;86;21131;-82
2022/05/20 10:38:49;;;;;;;3.12;1.67;;;;;;;23.80;29.01;98392.45;1671692;86;21078;-82
2022/05/20 10:41:34;;;;;;;4.35;1.80;;;;;;;24.41;27.87;98386.86;1671735;86;21060;-82
2022/05/20 10:50:33;;;;;;;2.12;1.60;;;;;;;28.25;24.82;98361.87;1699964;84;21068;-82
2022/05/20 10:53:10;;;;;;;6.00;2.02;;;;;;;29.57;24.92;98363.47;1699923;84;20993;-82
2022/05/20 10:55:58;;;;;;;6.10;1.77;;;;;;;30.67;24.19;98357.45;1699084;84;21446;-81
2022/05/20 10:58:46;;;;;;;4.47;1.85;;;;;;;31.51;23.51;98358.47;1698980;84;21136;-82
2022/05/20 11:01:49;;;;;;;4.62;2.37;;;;;;;32.30;22.50;98343.80;1699956;84;21076;-81
2022/05/20 11:04:37;;;;;;;6.87;2.95;;;;;;;32.82;22.01;98341.01;1700025;83;21020;-82
2022/05/20 11:07:24;;;;;;;3.47;1.82;;;;;;;33.39;19.17;98346.30;1699919;84;21016;-82
2022/05/20 11:10:00;;;;;;;3.40;2.40;;;;;;;33.86;21.16;98335.27;1698693;84;21020;-82
2022/05/20 11:12:45;;;;;;;4.53;2.00;;;;;;;34.49;20.51;98334.38;1700006;84;21095;-82
2022/05/20 11:15:36;;;;;;;4.90;2.00;;;;;;;35.06;20.10;98334.29;1689859;84;21045;-82
2022/05/20 11:18:12;;;;;;;4.33;1.72;;;;;;;35.34;20.01;98345.94;1699980;84;21538;-82
2022/05/20 11:21:08;;;;;;;3.55;2.02;;;;;;;35.59;18.39;98335.36;1700068;84;20990;-82
2022/05/20 11:23:50;;;;;;;2.75;1.50;;;;;;;35.96;18.38;98338.50;1698955;84;21098;-82
2022/05/20 11:26:36;;;;;;;3.27;1.67;;;;;;;36.00;16.70;98324.13;1690705;85;21148;-82
2022/05/20 11:29:18;;;;;;;3.47;1.60;;;;;;;36.37;15.52;98326.69;1692096;85;21024;-82
2022/05/20 11:32:00;;;;;;;3.33;1.40;;;;;;;36.39;16.09;98330.59;1690993;85;21455;-83
2022/05/20 11:34:46;;;;;;;5.72;1.67;;;;;;;36.56;14.92;98320.92;1701067;84;21061;-82
2022/05/20 11:37:24;;;;;;;2.12;1.45;;;;;;;36.88;15.72;98311.27;1692958;84;21048;-82
2022/05/20 11:40:12;;;;;;;2.22;1.50;;;;;;;37.20;15.83;98305.50;1691071;85;21028;-82
2022/05/20 11:43:07;;;;;;;2.60;1.52;;;;;;;37.38;15.25;98305.42;1690883;85;21466;-82
2022/05/20 11:45:45;;;;;;;3.75;1.40;;;;;;;37.39;14.64;98297.44;1690845;85;21036;-82
2022/05/20 11:48:48;;;;;;;4.78;1.85;;;;;;;37.62;15.50;98294.81;1664223;86;21080;-82
2022/05/20 11:51:24;;;;;;;1.95;1.55;;;;;;;37.89;15.45;98298.91;1664165;86;21068;-82
2022/05/20 11:53:55;;;;;;;1.92;1.60;;;;;;;37.32;13.54;98285.55;1664320;86;21509;-83
2022/05/20 11:56:37;;;;;;;3.60;1.60;;;;;;;37.30;14.23;98288.52;1696762;84;21505;-82
2022/05/20 11:59:22;;;;;;;3.17;1.80;;;;;;;37.62;14.59;98285.14;1692064;85;21044;-82
2022/05/20 12:01:52;;;;;;;2.17;1.60;;;;;;;37.45;14.18;98275.88;1691635;85;21465;-82
2022/05/20 12:04:21;;;;;;;5.15;2.10;;;;;;;37.50;13.81;98273.33;1691991;85;21108;-80
2022/05/20 12:06:54;;;;;;;2.20;2.00;;;;;;;37.58;12.98;98275.02;1706131;84;21074;-81
2022/05/20 12:09:33;;;;;;;3.33;1.77;;;;;;;36.30;12.80;98271.98;1709137;84;21043;-82
2022/05/20 12:12:24;;;;;;;2.22;1.70;;;;;;;36.29;13.82;98275.81;1692338;84;21089;-82
2022/05/20 12:15:15;;;;;;;3.58;1.82;;;;;;;35.72;13.31;98276.75;1692058;85;21111;-82
2022/05/20 12:17:45;;;;;;;3.65;1.67;;;;;;;35.78;14.24;98267.66;1692104;85;21131;-82
2022/05/20 12:26:28;;;;;;;2.92;1.80;;;;;;;36.78;14.11;98260.60;1692045;85;21048;-82
2022/05/20 12:28:54;;;;;;;5.97;2.33;;;;;;;36.88;15.30;98248.61;1696463;84;21046;-83
2022/05/20 12:31:34;;;;;;;10.98;2.85;;;;;;;37.17;15.39;98248.44;1709354;84;21065;-83
2022/05/20 12:34:16;;;;;;;5.08;1.90;;;;;;;37.36;15.15;98239.84;1709257;84;21074;-83
2022/05/20 12:36:43;;;;;;;4.20;2.00;;;;;;;37.17;15.21;98237.39;1688024;84;21039;-82
2022/05/20 12:39:13;;;;;;;3.92;2.00;;;;;;;37.29;15.81;98229.31;1701234;84;21036;-83
2022/05/20 12:41:52;;;;;;;4.75;2.12;;;;;;;37.67;15.75;98229.18;1692202;85;21072;-82